Time;durP1;ratioP1;P1;durP2;ratioP2;P2;SDS_P1;SDS_P2;PMS_P1;PMS_P2;Temp;Humidity;BMP_temperature;BMP_pressure;BME280_temperature;BME280_humidity;BME280_pressure;Samples;Min_cycle;Max_cycle;Signal;HPM_P1;HPM_P2
2023/06/26 00:01:39;;;;;;;7.17;6.23;;;20.00;99.90;;;;;;5071303;28;20204;-57
2023/06/26 00:04:06;;;;;;;7.90;7.30;;;20.00;99.90;;;;;;5070089;28;20221;-59
2023/06/26 00:06:33;;;;;;;7.40;6.80;;;20.00;99.90;;;;;;5065859;28;20205;-58
2023/06/26 00:09:02;;;;;;;7.10;6.40;;;20.00;99.90;;;;;;5070073;28;20262;-57
2023/06/26 00:11:32;;;;;;;7.93;7.23;;;19.90;99.90;;;;;;5071218;28;20679;-58
2023/06/26 00:14:00;;;;;;;8.23;7.57;;;20.00;99.90;;;;;;5070863;28;20221;-57
2023/06/26 00:16:28;;;;;;;7.93;7.27;;;19.90;99.90;;;;;;5066718;28;20293;-57
2023/06/26 00:18:55;;;;;;;7.47;6.87;;;19.90;99.90;;;;;;5070661;28;20201;-58
2023/06/26 00:21:22;;;;;;;8.17;7.57;;;19.90;99.90;;;;;;5070691;28;20198;-58
2023/06/26 00:23:49;;;;;;;6.63;6.13;;;19.90;99.90;;;;;;5069314;28;20217;-57
2023/06/26 00:26:16;;;;;;;6.57;6.17;;;19.90;99.90;;;;;;5069406;28;20205;-57
2023/06/26 00:28:43;;;;;;;6.37;5.87;;;19.90;99.90;;;;;;5069522;28;20205;-58
2023/06/26 00:31:10;;;;;;;6.87;6.47;;;19.80;99.90;;;;;;5068912;28;20250;-57
2023/06/26 00:33:38;;;;;;;7.47;6.90;;;19.80;99.90;;;;;;5070295;28;20274;-57
2023/06/26 00:36:05;;;;;;;7.97;7.10;;;19.90;99.90;;;;;;5069805;28;20273;-57
2023/06/26 00:38:32;;;;;;;7.53;6.87;;;19.90;99.90;;;;;;5070553;28;20196;-58
2023/06/26 00:40:59;;;;;;;7.67;7.17;;;19.90;99.90;;;;;;5070483;28;20247;-57
2023/06/26 00:43:26;;;;;;;7.67;7.13;;;19.90;99.90;;;;;;5069174;28;20225;-58
2023/06/26 00:45:53;;;;;;;7.47;6.77;;;19.90;99.90;;;;;;5069411;28;20342;-57
2023/06/26 00:48:20;;;;;;;7.80;7.20;;;19.90;99.90;;;;;;5070309;28;20566;-57
2023/06/26 00:50:49;;;;;;;10.20;8.00;;;20.00;99.90;;;;;;5070507;28;20209;-57
2023/06/26 00:53:16;;;;;;;6.80;6.30;;;20.00;99.90;;;;;;5069974;28;20516;-58
2023/06/26 00:55:43;;;;;;;7.40;6.80;;;20.00;99.90;;;;;;5068151;28;20201;-58
2023/06/26 00:58:10;;;;;;;7.30;6.70;;;20.00;99.90;;;;;;5070389;28;20205;-57
2023/06/26 01:00:37;;;;;;;7.53;6.97;;;20.00;99.90;;;;;;5070126;28;20702;-57
2023/06/26 01:03:04;;;;;;;7.70;6.97;;;20.00;99.90;;;;;;5069912;28;20227;-57
2023/06/26 01:05:31;;;;;;;8.13;7.47;;;20.00;99.90;;;;;;5068048;28;20208;-57
2023/06/26 01:08:00;;;;;;;6.47;6.07;;;19.90;99.90;;;;;;5068857;28;20254;-58
2023/06/26 01:10:28;;;;;;;8.10;7.33;;;19.90;99.90;;;;;;5069855;28;20197;-58
2023/06/26 01:12:56;;;;;;;9.00;7.57;;;19.90;99.90;;;;;;5069778;28;20201;-57
2023/06/26 01:15:23;;;;;;;8.27;7.70;;;20.00;99.90;;;;;;5068461;28;20225;-58
2023/06/26 01:17:51;;;;;;;8.93;7.07;;;19.90;99.90;;;;;;5070045;28;20197;-57
2023/06/26 01:20:20;;;;;;;8.73;8.03;;;19.90;99.90;;;;;;5067900;28;20298;-58
2023/06/26 01:23:03;;;;;;;8.17;7.47;;;19.90;99.90;;;;;;5069418;28;20259;-57
2023/06/26 01:25:38;;;;;;;8.73;7.93;;;19.90;99.90;;;;;;5068538;28;20660;-57
2023/06/26 01:28:07;;;;;;;8.83;7.80;;;19.90;99.90;;;;;;5069835;28;20299;-58
2023/06/26 01:30:36;;;;;;;7.50;6.90;;;19.90;99.90;;;;;;5069874;28;20258;-57
2023/06/26 01:33:03;;;;;;;9.47;8.57;;;19.90;99.90;;;;;;5067298;28;20201;-58
2023/06/26 01:35:30;;;;;;;7.97;7.17;;;19.90;99.90;;;;;;5068277;28;20209;-57
2023/06/26 01:38:13;;;;;;;7.17;6.60;;;19.90;99.90;;;;;;5069698;28;20274;-57
2023/06/26 01:40:40;;;;;;;7.53;6.83;;;19.90;99.90;;;;;;5069914;28;20630;-57
2023/06/26 01:43:19;;;;;;;8.13;7.43;;;20.00;99.90;;;;;;5069092;28;20255;-58
2023/06/26 01:45:48;;;;;;;8.03;7.33;;;19.90;99.90;;;;;;5073223;28;20200;-58
2023/06/26 01:48:21;;;;;;;7.17;6.67;;;19.90;99.90;;;;;;5073917;28;20205;-58
2023/06/26 01:50:50;;;;;;;7.77;7.07;;;19.90;99.90;;;;;;5073829;28;20227;-58
2023/06/26 01:53:20;;;;;;;7.70;7.10;;;20.00;99.90;;;;;;5071107;28;20351;-58
2023/06/26 01:55:51;;;;;;;7.73;7.13;;;20.00;99.90;;;;;;5070259;28;20258;-58
2023/06/26 01:58:23;;;;;;;7.80;7.20;;;20.00;99.90;;;;;;5073538;28;20284;-58
2023/06/26 02:00:50;;;;;;;8.37;7.67;;;20.00;99.90;;;;;;5073600;28;20217;-58
2023/06/26 02:03:17;;;;;;;7.47;6.97;;;19.90;99.90;;;;;;5073532;28;20254;-58
2023/06/26 02:05:44;;;;;;;7.90;7.30;;;19.90;99.90;;;;;;5071422;28;20197;-58
2023/06/26 02:08:15;;;;;;;8.23;7.60;;;19.90;99.90;;;;;;5073480;28;20287;-58
2023/06/26 02:10:42;;;;;;;8.93;8.03;;;19.90;99.90;;;;;;5073404;28;20197;-58
2023/06/26 02:13:09;;;;;;;7.00;6.57;;;20.00;99.90;;;;;;5073230;28;20197;-58
2023/06/26 02:15:37;;;;;;;8.50;7.83;;;20.00;99.90;;;;;;5071964;28;20202;-57
2023/06/26 02:18:04;;;;;;;8.90;8.17;;;20.00;99.90;;;;;;5070706;28;20205;-57
2023/06/26 02:20:31;;;;;;;7.97;7.27;;;20.00;99.90;;;;;;5072690;28;20216;-57
2023/06/26 02:22:58;;;;;;;7.53;6.87;;;20.00;99.90;;;;;;5072898;28;20197;-57
2023/06/26 02:25:25;;;;;;;7.10;6.70;;;20.00;99.90;;;;;;5071418;28;20217;-58
2023/06/26 02:27:52;;;;;;;7.37;6.87;;;19.90;99.90;;;;;;5073110;28;20263;-58
2023/06/26 02:30:19;;;;;;;7.97;7.37;;;19.90;99.90;;;;;;5073104;28;20205;-57
2023/06/26 02:32:47;;;;;;;8.67;7.70;;;19.90;99.90;;;;;;5071928;28;20263;-57
2023/06/26 02:35:14;;;;;;;8.53;7.93;;;19.80;99.90;;;;;;5071592;28;20225;-57
2023/06/26 02:37:41;;;;;;;9.57;7.27;;;19.80;99.90;;;;;;5072583;28;20193;-58
2023/06/26 02:40:10;;;;;;;8.50;7.70;;;19.80;99.90;;;;;;5072772;28;20221;-60
2023/06/26 02:42:38;;;;;;;8.17;7.57;;;19.80;99.90;;;;;;5072554;28;20670;-60
2023/06/26 02:45:05;;;;;;;7.63;7.13;;;19.80;99.90;;;;;;5068274;28;20675;-57
2023/06/26 02:47:32;;;;;;;8.50;7.80;;;19.80;99.90;;;;;;5071590;28;20201;-57
2023/06/26 02:50:01;;;;;;;7.57;6.87;;;19.80;99.90;;;;;;5072571;28;20197;-58
2023/06/26 02:52:28;;;;;;;8.17;7.57;;;19.80;99.90;;;;;;5072210;28;20266;-57
2023/06/26 02:54:55;;;;;;;8.30;7.50;;;19.80;99.90;;;;;;5068873;28;20232;-58
2023/06/26 02:57:22;;;;;;;6.93;6.43;;;19.90;99.90;;;;;;5069405;28;20205;-57
2023/06/26 02:59:49;;;;;;;7.60;7.00;;;19.80;99.90;;;;;;5072180;28;20631;-58
2023/06/26 03:02:16;;;;;;;7.13;6.53;;;19.80;99.90;;;;;;5068840;28;20254;-59
2023/06/26 03:04:43;;;;;;;7.63;7.03;;;19.90;99.90;;;;;;5071077;28;20275;-58
2023/06/26 03:07:11;;;;;;;8.70;7.33;;;19.90;99.90;;;;;;5071316;28;20209;-57
2023/06/26 03:09:38;;;;;;;7.30;6.63;;;20.00;99.90;;;;;;5072116;28;20258;-57
2023/06/26 03:12:06;;;;;;;8.10;7.50;;;20.00;99.90;;;;;;5071131;28;20251;-57
2023/06/26 03:14:33;;;;;;;7.57;6.83;;;19.90;99.90;;;;;;5071948;28;20266;-57
2023/06/26 03:17:03;;;;;;;7.07;6.47;;;19.90;99.90;;;;;;5072122;28;20202;-58
2023/06/26 03:19:30;;;;;;;8.17;7.53;;;19.90;99.90;;;;;;5069833;28;20631;-57
2023/06/26 03:21:57;;;;;;;8.93;8.23;;;19.80;99.90;;;;;;5069800;28;20736;-58
2023/06/26 03:24:25;;;;;;;6.97;6.47;;;19.90;99.90;;;;;;5071674;28;20760;-58
2023/06/26 03:26:52;;;;;;;7.70;6.63;;;19.90;99.90;;;;;;5072131;28;20255;-57
2023/06/26 03:29:19;;;;;;;8.53;7.83;;;19.90;99.90;;;;;;5069934;28;20237;-57
2023/06/26 03:31:47;;;;;;;7.63;7.10;;;19.90;99.90;;;;;;5068114;28;20233;-58
2023/06/26 03:34:14;;;;;;;7.37;6.73;;;19.90;99.90;;;;;;5071292;28;20221;-57
2023/06/26 03:36:41;;;;;;;7.53;6.93;;;19.90;99.90;;;;;;5070325;28;20201;-59
2023/06/26 03:39:08;;;;;;;7.67;7.07;;;19.90;99.90;;;;;;5066261;28;20624;-58
2023/06/26 03:41:36;;;;;;;8.03;7.33;;;19.90;99.90;;;;;;5071478;28;20227;-57
2023/06/26 03:44:03;;;;;;;7.17;6.73;;;20.00;99.90;;;;;;5070649;28;20228;-58
2023/06/26 03:46:30;;;;;;;9.43;7.63;;;20.00;99.90;;;;;;5071558;28;20296;-57
2023/06/26 03:48:57;;;;;;;7.07;6.60;;;20.00;99.90;;;;;;5071449;28;20197;-58
2023/06/26 03:51:24;;;;;;;6.63;6.23;;;20.00;99.90;;;;;;5071427;28;20197;-58
2023/06/26 03:53:51;;;;;;;8.17;7.60;;;20.00;99.90;;;;;;5071028;28;20290;-57
2023/06/26 03:56:18;;;;;;;7.90;7.17;;;20.00;99.90;;;;;;5069827;28;20669;-57
2023/06/26 03:58:47;;;;;;;7.93;7.33;;;20.00;99.90;;;;;;5070031;28;20205;-57
2023/06/26 04:01:13;;;;;;;7.33;6.80;;;19.90;99.90;;;;;;5066767;28;20232;-58
2023/06/26 04:03:40;;;;;;;8.23;7.53;;;19.90;99.90;;;;;;5064544;28;20225;-56
2023/06/26 04:06:07;;;;;;;7.10;6.60;;;19.90;99.90;;;;;;5063984;28;20209;-57
2023/06/26 04:08:34;;;;;;;7.07;6.50;;;19.90;99.90;;;;;;5069233;28;20577;-57
2023/06/26 04:11:01;;;;;;;8.03;7.43;;;19.90;99.90;;;;;;5068153;28;20208;-57
2023/06/26 04:13:28;;;;;;;8.73;8.03;;;19.90;99.90;;;;;;5068936;28;20354;-58
2023/06/26 04:15:57;;;;;;;8.63;7.80;;;20.00;99.90;;;;;;5071075;28;20292;-59
2023/06/26 04:18:24;;;;;;;6.93;6.43;;;20.10;99.90;;;;;;5070077;28;20201;-58
2023/06/26 04:21:09;;;;;;;8.97;8.10;;;20.10;99.90;;;;;;5070484;28;20289;-56
2023/06/26 04:23:36;;;;;;;9.23;8.43;;;20.10;99.90;;;;;;5070729;28;20265;-57
2023/06/26 04:26:04;;;;;;;8.03;7.33;;;20.10;99.90;;;;;;5070734;28;20197;-57
2023/06/26 04:28:32;;;;;;;6.67;6.27;;;20.30;99.90;;;;;;5070927;28;20201;-57
2023/06/26 04:31:00;;;;;;;8.43;7.73;;;20.30;99.90;;;;;;5070554;28;20700;-57
2023/06/26 04:33:28;;;;;;;10.73;8.80;;;20.20;99.90;;;;;;5070219;28;20642;-57
2023/06/26 04:35:55;;;;;;;7.50;6.83;;;20.20;99.90;;;;;;5069925;28;20338;-57
2023/06/26 04:38:22;;;;;;;8.40;7.70;;;20.20;99.90;;;;;;5070793;28;20201;-57
2023/06/26 04:40:49;;;;;;;9.13;8.27;;;20.30;99.90;;;;;;5070439;28;20220;-57
2023/06/26 04:43:16;;;;;;;8.03;7.33;;;20.40;99.90;;;;;;5070319;28;20201;-57
2023/06/26 04:45:43;;;;;;;8.57;7.83;;;20.40;99.90;;;;;;5070372;28;20276;-57
2023/06/26 04:48:12;;;;;;;8.67;7.67;;;20.50;99.90;;;;;;5070600;28;20197;-57
2023/06/26 04:50:39;;;;;;;8.43;7.80;;;20.50;99.90;;;;;;5070347;28;20200;-57
2023/06/26 04:53:06;;;;;;;9.07;8.40;;;20.70;99.90;;;;;;5065837;28;20198;-57
2023/06/26 04:55:32;;;;;;;8.60;8.00;;;20.70;99.90;;;;;;5069385;28;20258;-58
2023/06/26 04:57:59;;;;;;;9.60;8.70;;;20.90;99.90;;;;;;5070222;28;20205;-58
2023/06/26 05:00:26;;;;;;;8.27;7.67;;;21.00;99.90;;;;;;5070047;28;20251;-57
2023/06/26 05:03:00;;;;;;;8.40;7.80;;;21.20;99.90;;;;;;5069255;28;20286;-58
2023/06/26 05:05:29;;;;;;;8.23;7.63;;;21.20;99.90;;;;;;5069962;28;20224;-58
2023/06/26 05:07:56;;;;;;;8.50;7.80;;;21.40;99.90;;;;;;5070391;28;20193;-58
2023/06/26 05:10:24;;;;;;;9.53;8.83;;;21.60;99.90;;;;;;5070008;28;20337;-58
2023/06/26 05:12:50;;;;;;;8.97;7.93;;;21.70;99.90;;;;;;5068206;28;20674;-57
2023/06/26 05:15:17;;;;;;;9.23;8.43;;;21.90;99.90;;;;;;5069376;28;20247;-58
2023/06/26 05:17:44;;;;;;;9.10;8.30;;;22.10;99.90;;;;;;5069028;28;20299;-58
2023/06/26 05:20:12;;;;;;;7.87;7.27;;;22.50;99.90;;;;;;5069825;28;20259;-58
2023/06/26 05:22:41;;;;;;;9.50;8.47;;;23.20;99.90;;;;;;5069819;28;20278;-58
2023/06/26 05:25:11;;;;;;;7.70;7.00;;;23.80;99.90;;;;;;5067810;28;20761;-58
2023/06/26 05:27:38;;;;;;;7.70;7.17;;;24.30;99.90;;;;;;5069716;28;20207;-58
2023/06/26 05:30:07;;;;;;;8.10;7.33;;;25.00;99.90;;;;;;5069802;28;20732;-58
2023/06/26 05:32:35;;;;;;;8.93;8.07;;;25.60;99.90;;;;;;5068198;28;20219;-58
2023/06/26 05:35:04;;;;;;;8.20;7.57;;;26.20;99.90;;;;;;5067248;28;20224;-58
2023/06/26 05:37:34;;;;;;;7.77;7.17;;;26.70;99.90;;;;;;5068888;28;20646;-58
2023/06/26 05:40:05;;;;;;;7.87;7.27;;;27.40;99.90;;;;;;5069296;28;20201;-59
2023/06/26 05:42:33;;;;;;;8.87;8.13;;;27.30;99.90;;;;;;5069400;28;20320;-58
2023/06/26 05:45:00;;;;;;;7.27;6.83;;;27.20;99.90;;;;;;5066001;28;20286;-58
2023/06/26 05:47:27;;;;;;;8.30;7.50;;;27.20;99.90;;;;;;5068644;28;20259;-58
2023/06/26 05:49:54;;;;;;;7.53;6.80;;;27.50;99.90;;;;;;5069460;28;20258;-58
2023/06/26 05:52:22;;;;;;;8.83;8.23;;;27.70;99.90;;;;;;5068556;28;20352;-58
2023/06/26 05:54:49;;;;;;;9.00;7.85;;;28.10;99.90;;;;;;5066898;28;20224;-58
2023/06/26 05:57:17;;;;;;;8.15;7.55;;;28.50;99.90;;;;;;5069492;28;20197;-58
2023/06/26 05:59:45;;;;;;;8.07;7.53;;;28.40;99.90;;;;;;5069291;28;20198;-57
2023/06/26 06:02:13;;;;;;;8.82;8.07;;;28.50;99.90;;;;;;5067960;28;20568;-57
2023/06/26 06:04:40;;;;;;;8.75;8.05;;;28.30;99.90;;;;;;5068536;28;20659;-57
2023/06/26 06:07:07;;;;;;;8.63;8.02;;;28.50;99.90;;;;;;5066786;28;20209;-57
2023/06/26 06:09:34;;;;;;;8.60;7.53;;;29.00;99.90;;;;;;5069301;28;20693;-57
2023/06/26 06:12:03;;;;;;;8.85;8.25;;;29.30;99.90;;;;;;5069374;28;20259;-57
2023/06/26 06:14:31;;;;;;;10.13;9.38;;;29.60;99.90;;;;;;5067772;28;20706;-66
2023/06/26 06:16:59;;;;;;;7.78;7.25;;;30.00;99.90;;;;;;5068609;28;20530;-71
2023/06/26 06:19:26;;;;;;;7.15;6.70;;;30.60;99.90;;;;;;5069220;28;20201;-69
2023/06/26 06:21:53;;;;;;;8.30;7.70;;;30.90;99.90;;;;;;5068186;28;20293;-66
2023/06/26 06:24:20;;;;;;;8.35;7.85;;;30.90;99.90;;;;;;5067415;28;20759;-63
2023/06/26 06:26:47;;;;;;;8.73;8.10;;;30.80;99.90;;;;;;5069213;28;20202;-64
2023/06/26 06:29:16;;;;;;;9.50;8.73;;;30.80;99.90;;;;;;5069945;28;20205;-64
2023/06/26 06:31:44;;;;;;;8.82;8.13;;;30.70;99.90;;;;;;5071463;28;20529;-63
2023/06/26 06:34:11;;;;;;;7.78;7.18;;;30.80;99.90;;;;;;5071440;28;20278;-64
2023/06/26 06:36:38;;;;;;;7.68;7.18;;;30.80;99.90;;;;;;5069623;28;20217;-64
2023/06/26 06:39:05;;;;;;;7.80;7.32;;;31.30;99.90;;;;;;5072221;28;20254;-64
2023/06/26 06:41:32;;;;;;;8.13;7.50;;;31.60;99.50;;;;;;5070683;28;20698;-65
2023/06/26 06:44:02;;;;;;;8.27;7.78;;;31.60;99.80;;;;;;5089404;22;20310;-64
2023/06/26 06:46:29;;;;;;;9.65;8.85;;;31.30;99.20;;;;;;5072036;28;20650;-64
2023/06/26 06:48:58;;;;;;;8.52;7.72;;;31.10;99.60;;;;;;5071935;28;20209;-63
2023/06/26 06:51:25;;;;;;;8.82;8.18;;;31.30;99.30;;;;;;5068107;28;20201;-62
2023/06/26 06:53:52;;;;;;;8.85;8.15;;;31.00;99.90;;;;;;5072217;28;20270;-51
2023/06/26 06:56:18;;;;;;;8.82;8.13;;;31.50;99.90;;;;;;5073185;28;20641;-54
2023/06/26 06:58:46;;;;;;;7.25;6.88;;;32.00;99.80;;;;;;5071020;28;20229;-56
2023/06/26 07:01:13;;;;;;;7.85;7.15;;;32.40;98.00;;;;;;5067619;28;20235;-57
2023/06/26 07:03:40;;;;;;;8.20;7.78;;;32.50;99.80;;;;;;5069786;28;20221;-58
2023/06/26 07:06:08;;;;;;;8.43;7.80;;;33.30;98.10;;;;;;5071183;28;20201;-57
2023/06/26 07:08:36;;;;;;;7.55;7.05;;;33.40;98.40;;;;;;5071712;28;20197;-59
2023/06/26 07:11:03;;;;;;;8.20;7.50;;;33.50;96.60;;;;;;5072562;28;20284;-59
2023/06/26 07:13:30;;;;;;;6.78;6.35;;;33.10;96.00;;;;;;5064443;28;20225;-60
2023/06/26 07:15:57;;;;;;;8.07;7.47;;;33.20;97.00;;;;;;5072372;28;20205;-55
2023/06/26 07:18:23;;;;;;;7.95;7.10;;;33.00;96.90;;;;;;5072773;28;20605;-60
2023/06/26 07:20:50;;;;;;;6.32;6.07;;;33.40;96.10;;;;;;5063058;28;20617;-64
2023/06/26 07:23:19;;;;;;;7.60;7.20;;;33.70;97.90;;;;;;5070231;28;20640;-63
2023/06/26 07:25:46;;;;;;;6.70;6.25;;;33.60;95.50;;;;;;5071960;28;20278;-65
2023/06/26 07:28:13;;;;;;;8.60;7.95;;;32.50;96.10;;;;;;5073159;28;20666;-63
2023/06/26 07:30:40;;;;;;;8.77;8.18;;;31.60;96.30;;;;;;5071184;28;20285;-61
2023/06/26 07:33:07;;;;;;;11.10;7.65;;;31.90;98.40;;;;;;5070679;28;20217;-65
2023/06/26 07:35:34;;;;;;;7.90;7.50;;;32.30;96.60;;;;;;5071036;28;20254;-62
2023/06/26 07:38:01;;;;;;;8.20;7.65;;;33.00;97.10;;;;;;5071451;28;20201;-61
2023/06/26 07:40:30;;;;;;;7.97;7.47;;;33.70;95.60;;;;;;5067955;28;20197;-56
2023/06/26 07:42:58;;;;;;;6.50;6.05;;;34.40;94.60;;;;;;5069040;28;20249;-57
2023/06/26 07:45:25;;;;;;;7.72;6.93;;;34.50;94.00;;;;;;5070784;28;20666;-57
2023/06/26 07:47:52;;;;;;;7.90;7.40;;;34.60;92.40;;;;;;5072940;28;20254;-55
2023/06/26 07:50:22;;;;;;;9.32;7.90;;;34.70;92.50;;;;;;5069009;28;20659;-58
2023/06/26 07:52:49;;;;;;;8.35;7.85;;;34.00;93.00;;;;;;5070856;28;20228;-56
2023/06/26 07:55:16;;;;;;;7.32;6.72;;;34.00;92.90;;;;;;5070608;28;20231;-62
2023/06/26 07:57:45;;;;;;;7.93;7.28;;;34.50;95.80;;;;;;5072054;28;20208;-61
2023/06/26 08:00:13;;;;;;;7.70;7.25;;;34.60;92.60;;;;;;5069217;28;20742;-57
2023/06/26 08:02:39;;;;;;;8.40;7.90;;;35.10;91.40;;;;;;5072024;28;20213;-58
2023/06/26 08:05:07;;;;;;;7.97;7.47;;;35.40;92.20;;;;;;5072550;28;20712;-57
2023/06/26 08:07:34;;;;;;;6.80;6.40;;;35.40;91.40;;;;;;5072189;28;20193;-56
2023/06/26 08:10:01;;;;;;;9.00;8.40;;;35.30;94.50;;;;;;5070974;28;20219;-61
2023/06/26 08:12:28;;;;;;;8.05;7.45;;;35.60;92.70;;;;;;5061346;28;20231;-56
2023/06/26 08:14:56;;;;;;;7.85;7.15;;;35.90;91.30;;;;;;5072217;28;20213;-58
2023/06/26 08:17:23;;;;;;;8.23;7.82;;;35.90;91.30;;;;;;5072329;28;20204;-61
2023/06/26 08:19:50;;;;;;;8.48;7.75;;;36.10;90.30;;;;;;5072395;28;20201;-57
2023/06/26 08:22:17;;;;;;;8.85;8.15;;;36.20;91.20;;;;;;5068330;28;20217;-58
2023/06/26 08:24:44;;;;;;;8.65;8.00;;;36.10;87.20;;;;;;5070533;28;20217;-57
2023/06/26 08:27:11;;;;;;;9.00;8.30;;;36.30;89.00;;;;;;5064356;28;20205;-56
2023/06/26 08:29:38;;;;;;;8.52;7.90;;;36.20;90.60;;;;;;5071645;28;20201;-57
2023/06/26 08:32:07;;;;;;;7.82;7.35;;;36.30;91.80;;;;;;5063396;28;20225;-56
2023/06/26 08:34:34;;;;;;;8.90;8.13;;;36.40;90.40;;;;;;5072071;28;20294;-60
2023/06/26 08:37:01;;;;;;;8.60;7.82;;;36.40;87.30;;;;;;5071918;28;20583;-57
2023/06/26 08:39:28;;;;;;;9.05;8.43;;;36.90;90.80;;;;;;5071805;28;20274;-56
2023/06/26 08:41:55;;;;;;;8.23;7.35;;;37.10;87.80;;;;;;5068562;28;20221;-58
2023/06/26 08:44:24;;;;;;;8.50;7.70;;;37.40;90.10;;;;;;5068934;28;20228;-56
2023/06/26 08:46:51;;;;;;;9.15;8.25;;;37.20;91.20;;;;;;5071694;28;20200;-57
2023/06/26 08:49:26;;;;;;;8.02;7.10;;;37.10;84.10;;;;;;5071875;28;20271;-57
2023/06/26 08:51:57;;;;;;;8.63;7.60;;;37.30;84.70;;;;;;5062148;28;20190;-56
2023/06/26 08:54:29;;;;;;;8.07;7.57;;;37.20;85.00;;;;;;5071171;28;20256;-57
2023/06/26 08:56:58;;;;;;;8.68;8.00;;;37.50;85.80;;;;;;5071725;28;20201;-56
2023/06/26 08:59:25;;;;;;;7.55;6.95;;;37.90;80.80;;;;;;5069280;28;20223;-53
2023/06/26 09:01:52;;;;;;;7.43;6.88;;;37.80;84.00;;;;;;5067962;28;20221;-53
2023/06/26 09:04:21;;;;;;;6.90;6.43;;;37.80;81.80;;;;;;5054888;28;20217;-53
2023/06/26 09:06:48;;;;;;;8.63;8.02;;;37.70;88.80;;;;;;5070937;28;20201;-53
2023/06/26 09:09:15;;;;;;;7.72;7.15;;;37.60;83.70;;;;;;5071399;28;20205;-53
2023/06/26 09:11:42;;;;;;;11.13;8.27;;;37.60;89.10;;;;;;5061962;28;20210;-53
2023/06/26 09:14:10;;;;;;;8.75;8.10;;;37.40;82.60;;;;;;5068739;28;20276;-53
2023/06/26 09:16:42;;;;;;;16.10;9.32;;;37.50;84.40;;;;;;5069607;28;20292;-53
2023/06/26 09:19:11;;;;;;;9.15;8.63;;;37.60;86.20;;;;;;5063073;28;20219;-53
2023/06/26 09:21:40;;;;;;;7.88;7.32;;;37.90;77.10;;;;;;5069303;28;20201;-53
2023/06/26 09:24:09;;;;;;;9.02;8.00;;;37.50;83.40;;;;;;5060463;28;20221;-53
2023/06/26 09:26:38;;;;;;;14.77;9.10;;;36.70;89.60;;;;;;5070978;28;20239;-53
2023/06/26 09:29:05;;;;;;;7.95;7.47;;;35.50;82.00;;;;;;5070940;28;20201;-53
2023/06/26 09:31:33;;;;;;;8.82;8.05;;;34.60;85.20;;;;;;5063314;28;20229;-53
2023/06/26 09:34:01;;;;;;;9.15;8.57;;;35.20;87.70;;;;;;5069964;28;20574;-53
2023/06/26 09:36:32;;;;;;;8.95;7.78;;;35.70;87.20;;;;;;5071120;28;20201;-53
2023/06/26 09:39:01;;;;;;;9.60;8.85;;;36.40;84.50;;;;;;5071298;28;20211;-53
2023/06/26 09:41:28;;;;;;;8.15;7.65;;;36.80;79.60;;;;;;5065709;28;20250;-53
2023/06/26 09:44:02;;;;;;;8.95;8.40;;;36.60;84.60;;;;;;5074270;28;20301;-53
2023/06/26 09:46:30;;;;;;;8.32;7.72;;;36.90;82.10;;;;;;5071103;28;20208;-53
2023/06/26 09:49:02;;;;;;;8.70;8.05;;;37.00;79.70;;;;;;5070911;28;20236;-54
2023/06/26 09:51:31;;;;;;;9.15;7.40;;;36.70;83.20;;;;;;5062252;28;20202;-53
2023/06/26 09:53:59;;;;;;;8.50;7.50;;;35.90;83.00;;;;;;5069256;28;20213;-53
2023/06/26 09:56:28;;;;;;;8.05;7.30;;;36.00;85.10;;;;;;5070922;28;20197;-52
2023/06/26 09:58:57;;;;;;;7.70;7.22;;;35.80;88.40;;;;;;5071168;28;20201;-53
2023/06/26 10:01:25;;;;;;;10.48;7.35;;;35.20;84.40;;;;;;5063686;28;20292;-53
2023/06/26 10:03:51;;;;;;;7.85;7.38;;;35.50;87.10;;;;;;5068326;28;20224;-53
2023/06/26 10:06:23;;;;;;;9.05;8.30;;;35.60;88.70;;;;;;5074843;28;20262;-53
2023/06/26 10:08:51;;;;;;;9.27;8.38;;;35.60;90.50;;;;;;5074387;28;20273;-53
2023/06/26 10:11:22;;;;;;;8.55;7.97;;;35.00;90.00;;;;;;5068153;28;20206;-52
2023/06/26 10:13:52;;;;;;;9.50;8.07;;;34.20;90.20;;;;;;5071723;28;20213;-53
2023/06/26 10:16:24;;;;;;;9.52;8.73;;;33.80;91.50;;;;;;5074561;28;20201;-53
2023/06/26 10:18:54;;;;;;;8.18;7.70;;;33.70;91.20;;;;;;5074470;28;20205;-53
2023/06/26 10:21:23;;;;;;;8.65;8.15;;;33.90;90.90;;;;;;5067458;28;20697;-53
2023/06/26 10:23:52;;;;;;;9.98;9.18;;;33.90;91.60;;;;;;5071468;28;20357;-53
2023/06/26 10:26:22;;;;;;;8.60;8.18;;;33.40;91.80;;;;;;5072870;28;20236;-52
2023/06/26 10:28:52;;;;;;;9.05;8.38;;;32.20;93.10;;;;;;5066018;28;20212;-53
2023/06/26 10:31:21;;;;;;;8.57;8.02;;;31.40;93.30;;;;;;5068524;28;20288;-53
2023/06/26 10:33:49;;;;;;;8.20;7.63;;;30.90;93.80;;;;;;5068850;28;20245;-52
2023/06/26 10:36:17;;;;;;;7.97;7.38;;;31.40;93.50;;;;;;5072255;28;20200;-53
2023/06/26 10:38:52;;;;;;;8.35;7.65;;;32.30;92.70;;;;;;5071876;28;20232;-53
2023/06/26 10:41:23;;;;;;;8.20;7.50;;;32.70;91.50;;;;;;5067753;28;20205;-53
2023/06/26 10:43:52;;;;;;;9.18;8.43;;;33.60;94.90;;;;;;5061591;28;20255;-53
2023/06/26 10:46:20;;;;;;;7.32;7.03;;;33.50;86.70;;;;;;5074078;28;20205;-59
2023/06/26 10:49:00;;;;;;;8.20;7.60;;;33.50;91.20;;;;;;5073673;28;20566;-60
2023/06/26 10:51:27;;;;;;;7.88;7.28;;;33.50;91.70;;;;;;5065768;28;20233;-60
2023/06/26 10:53:58;;;;;;;8.25;7.75;;;33.00;91.10;;;;;;5062418;28;20264;-60
2023/06/26 10:56:44;;;;;;;13.20;8.30;;;32.80;91.70;;;;;;5073947;28;20675;-60
2023/06/26 10:59:19;;;;;;;8.35;7.68;;;32.80;92.20;;;;;;5074146;28;20232;-61
2023/06/26 11:01:47;;;;;;;7.85;7.30;;;32.60;90.30;;;;;;5072881;28;20235;-58
2023/06/26 11:04:16;;;;;;;8.15;7.60;;;32.50;92.30;;;;;;5073180;28;20225;-60
2023/06/26 11:06:48;;;;;;;7.13;6.72;;;32.20;90.50;;;;;;5065012;28;20250;-60
2023/06/26 11:09:18;;;;;;;7.35;6.95;;;32.00;92.10;;;;;;5067797;28;20739;-60
2023/06/26 11:12:08;;;;;;;8.18;7.57;;;32.20;91.50;;;;;;5068500;28;20262;-60
2023/06/26 11:14:36;;;;;;;7.78;7.30;;;32.70;92.10;;;;;;5069039;28;20657;-55
2023/06/26 11:17:06;;;;;;;8.55;7.85;;;33.00;94.30;;;;;;5071936;28;20201;-56
2023/06/26 11:19:33;;;;;;;7.40;6.90;;;33.30;92.60;;;;;;5073331;28;20201;-56
2023/06/26 11:22:05;;;;;;;7.05;6.75;;;33.30;92.00;;;;;;5065959;28;20223;-58
2023/06/26 11:24:33;;;;;;;7.43;6.95;;;32.70;88.70;;;;;;5068188;28;20789;-59
2023/06/26 11:27:05;;;;;;;7.68;7.15;;;32.40;92.00;;;;;;5073223;28;20207;-61
2023/06/26 11:29:33;;;;;;;8.00;7.40;;;31.80;91.20;;;;;;5073045;28;20216;-60
2023/06/26 11:32:06;;;;;;;8.13;7.43;;;31.80;92.50;;;;;;5065101;28;20229;-61
2023/06/26 11:34:34;;;;;;;7.60;7.20;;;31.60;91.00;;;;;;5065299;28;20318;-61
2023/06/26 11:37:04;;;;;;;7.82;7.40;;;31.60;93.90;;;;;;5072322;28;20225;-57
2023/06/26 11:39:31;;;;;;;8.95;7.63;;;31.50;92.80;;;;;;5073221;28;20254;-59
2023/06/26 11:42:00;;;;;;;6.93;6.53;;;31.80;91.60;;;;;;5063130;28;20198;-58
2023/06/26 11:44:31;;;;;;;7.55;7.00;;;31.60;90.00;;;;;;5072389;28;20221;-58
2023/06/26 11:46:58;;;;;;;7.70;7.30;;;31.30;88.70;;;;;;5072842;28;20258;-60
2023/06/26 11:49:26;;;;;;;7.35;6.70;;;30.90;85.20;;;;;;5072545;28;20209;-60
2023/06/26 11:51:55;;;;;;;6.65;6.07;;;30.90;89.60;;;;;;5063554;28;20234;-60
2023/06/26 11:54:27;;;;;;;6.70;6.30;;;30.90;91.70;;;;;;5062855;28;20221;-60
2023/06/26 11:56:58;;;;;;;7.57;6.93;;;31.00;90.70;;;;;;5066963;28;20284;-59
2023/06/26 11:59:26;;;;;;;8.43;7.63;;;31.10;92.20;;;;;;5072788;28;20227;-59
2023/06/26 12:01:55;;;;;;;7.35;6.85;;;31.10;91.70;;;;;;5071900;28;20225;-60
2023/06/26 12:04:22;;;;;;;7.13;6.63;;;31.40;91.20;;;;;;5057614;28;20230;-61
2023/06/26 12:06:51;;;;;;;8.20;7.60;;;31.50;91.70;;;;;;5062947;28;20228;-56
2023/06/26 12:09:20;;;;;;;7.30;6.68;;;31.40;89.80;;;;;;5072002;28;20604;-56
2023/06/26 12:11:49;;;;;;;7.82;7.20;;;31.20;92.40;;;;;;5063405;28;20209;-58
2023/06/26 12:14:17;;;;;;;7.18;6.68;;;31.50;91.70;;;;;;5053732;28;20223;-57
2023/06/26 12:16:44;;;;;;;6.90;6.50;;;31.40;88.90;;;;;;5071512;28;20280;-53
2023/06/26 12:19:13;;;;;;;7.10;6.60;;;31.40;89.00;;;;;;5070574;28;20209;-53
2023/06/26 12:21:51;;;;;;;8.38;6.82;;;31.60;93.00;;;;;;5070884;28;20255;-53
2023/06/26 12:24:20;;;;;;;7.68;7.07;;;31.70;89.60;;;;;;5062618;28;20228;-53
2023/06/26 12:26:50;;;;;;;6.82;6.40;;;31.80;92.00;;;;;;5071914;28;20228;-53
2023/06/26 12:29:19;;;;;;;7.75;7.22;;;31.60;88.50;;;;;;5072022;28;20205;-53
2023/06/26 12:31:50;;;;;;;6.55;6.13;;;31.50;90.30;;;;;;5072122;28;20802;-53
2023/06/26 12:34:20;;;;;;;6.50;6.18;;;31.50;90.20;;;;;;5061967;28;20286;-53
2023/06/26 12:36:48;;;;;;;7.68;7.07;;;31.10;90.40;;;;;;5071938;28;20259;-53
2023/06/26 12:39:17;;;;;;;7.28;6.88;;;31.20;90.40;;;;;;5072060;28;20283;-53
2023/06/26 12:41:48;;;;;;;7.82;7.22;;;30.90;86.90;;;;;;5071847;28;20255;-53
2023/06/26 12:44:19;;;;;;;7.47;6.97;;;30.90;90.10;;;;;;5061754;28;20229;-53
2023/06/26 12:46:48;;;;;;;6.93;6.47;;;30.70;89.50;;;;;;5073149;28;20223;-53
2023/06/26 12:49:15;;;;;;;7.07;6.50;;;30.80;91.30;;;;;;5071923;28;20201;-53
2023/06/26 12:51:43;;;;;;;6.72;6.32;;;30.80;90.60;;;;;;5071756;28;20197;-53